sensor_id;sensor_type;location;lat;lon;timestamp;pressure;altitude;pressure_sealevel;temperature;humidity
73566;BME280;61846;52.970;-3.168;2023-07-30T00:01:26;99614.24;;;17.56;42.67
73566;BME280;61846;52.970;-3.168;2023-07-30T00:03:52;99623.82;;;18.02;41.49
73566;BME280;61846;52.970;-3.168;2023-07-30T00:06:17;99615.81;;;17.31;44.83
73566;BME280;61846;52.970;-3.168;2023-07-30T00:08:42;99611.07;;;17.76;44.22
73566;BME280;61846;52.970;-3.168;2023-07-30T00:11:08;99611.17;;;17.96;44.69
73566;BME280;61846;52.970;-3.168;2023-07-30T00:13:33;99612.31;;;17.83;44.08
73566;BME280;61846;52.970;-3.168;2023-07-30T00:15:58;99611.91;;;18.13;43.16
73566;BME280;61846;52.970;-3.168;2023-07-30T00:18:24;99611.21;;;17.74;44.33
73566;BME280;61846;52.970;-3.168;2023-07-30T00:20:49;99612.66;;;17.96;44.21
73566;BME280;61846;52.970;-3.168;2023-07-30T00:23:15;99605.19;;;17.61;43.54
73566;BME280;61846;52.970;-3.168;2023-07-30T00:25:40;99606.80;;;18.25;43.11
73566;BME280;61846;52.970;-3.168;2023-07-30T00:28:05;99611.91;;;18.18;43.14
73566;BME280;61846;52.970;-3.168;2023-07-30T00:30:31;99615.63;;;18.36;41.92
73566;BME280;61846;52.970;-3.168;2023-07-30T00:32:56;99614.61;;;18.54;42.58
73566;BME280;61846;52.970;-3.168;2023-07-30T00:35:22;99614.81;;;18.26;41.23
73566;BME280;61846;52.970;-3.168;2023-07-30T00:37:47;99614.81;;;18.13;42.46
73566;BME280;61846;52.970;-3.168;2023-07-30T00:40:12;99614.12;;;18.21;41.95
73566;BME280;61846;52.970;-3.168;2023-07-30T00:42:38;99612.15;;;18.53;41.63
73566;BME280;61846;52.970;-3.168;2023-07-30T00:45:04;99610.66;;;18.20;41.65
73566;BME280;61846;52.970;-3.168;2023-07-30T00:47:29;99616.69;;;18.53;41.21
73566;BME280;61846;52.970;-3.168;2023-07-30T00:49:54;99615.61;;;17.11;42.25
73566;BME280;61846;52.970;-3.168;2023-07-30T00:52:21;99622.33;;;17.48;42.68
73566;BME280;61846;52.970;-3.168;2023-07-30T00:54:45;99613.21;;;17.80;41.88
73566;BME280;61846;52.970;-3.168;2023-07-30T00:57:11;99620.40;;;17.93;41.80
73566;BME280;61846;52.970;-3.168;2023-07-30T00:59:36;99619.25;;;17.18;42.72
73566;BME280;61846;52.970;-3.168;2023-07-30T01:02:02;99624.24;;;16.51;44.58
73566;BME280;61846;52.970;-3.168;2023-07-30T01:04:27;99626.17;;;16.61;44.04
73566;BME280;61846;52.970;-3.168;2023-07-30T01:06:52;99625.09;;;16.32;44.80
73566;BME280;61846;52.970;-3.168;2023-07-30T01:09:17;99627.31;;;16.29;45.31
73566;BME280;61846;52.970;-3.168;2023-07-30T01:11:43;99628.83;;;15.90;45.59
73566;BME280;61846;52.970;-3.168;2023-07-30T01:14:09;99625.06;;;15.33;46.77
73566;BME280;61846;52.970;-3.168;2023-07-30T01:16:34;99625.08;;;15.95;45.54
73566;BME280;61846;52.970;-3.168;2023-07-30T01:18:59;99628.67;;;16.74;43.98
73566;BME280;61846;52.970;-3.168;2023-07-30T01:21:25;99629.02;;;16.19;44.68
73566;BME280;61846;52.970;-3.168;2023-07-30T01:23:50;99632.10;;;16.17;44.93
73566;BME280;61846;52.970;-3.168;2023-07-30T01:26:20;99628.79;;;16.29;45.17
73566;BME280;61846;52.970;-3.168;2023-07-30T01:28:45;99641.56;;;16.56;44.72
73566;BME280;61846;52.970;-3.168;2023-07-30T01:31:08;99635.08;;;17.05;43.45
73566;BME280;61846;52.970;-3.168;2023-07-30T01:33:32;99632.70;;;16.74;44.44
73566;BME280;61846;52.970;-3.168;2023-07-30T01:35:58;99633.25;;;16.71;43.85
73566;BME280;61846;52.970;-3.168;2023-07-30T01:38:23;99631.58;;;16.37;44.71
73566;BME280;61846;52.970;-3.168;2023-07-30T01:40:48;99643.65;;;16.83;44.14
73566;BME280;61846;52.970;-3.168;2023-07-30T01:43:14;99636.77;;;16.90;44.49
73566;BME280;61846;52.970;-3.168;2023-07-30T01:45:39;99639.91;;;16.73;44.30
73566;BME280;61846;52.970;-3.168;2023-07-30T01:48:05;99646.76;;;15.70;47.92
73566;BME280;61846;52.970;-3.168;2023-07-30T01:50:30;99651.17;;;14.86;50.13
73566;BME280;61846;52.970;-3.168;2023-07-30T01:52:55;99648.82;;;15.03;49.26
73566;BME280;61846;52.970;-3.168;2023-07-30T01:55:21;99666.44;;;15.72;48.39
73566;BME280;61846;52.970;-3.168;2023-07-30T01:57:46;99662.51;;;15.14;51.24
73566;BME280;61846;52.970;-3.168;2023-07-30T02:00:12;99659.93;;;14.72;54.90
73566;BME280;61846;52.970;-3.168;2023-07-30T02:02:37;99659.93;;;15.42;52.87
73566;BME280;61846;52.970;-3.168;2023-07-30T02:05:04;99658.47;;;16.26;50.89
73566;BME280;61846;52.970;-3.168;2023-07-30T02:07:29;99663.84;;;16.39;50.56
73566;BME280;61846;52.970;-3.168;2023-07-30T02:09:55;99662.70;;;16.10;49.56
73566;BME280;61846;52.970;-3.168;2023-07-30T02:12:20;99663.54;;;16.31;49.46
73566;BME280;61846;52.970;-3.168;2023-07-30T02:14:45;99670.11;;;16.71;49.01
73566;BME280;61846;52.970;-3.168;2023-07-30T02:17:10;99670.22;;;16.10;50.47
73566;BME280;61846;52.970;-3.168;2023-07-30T02:19:36;99673.87;;;16.04;50.35
73566;BME280;61846;52.970;-3.168;2023-07-30T02:22:01;99672.27;;;16.16;50.54
73566;BME280;61846;52.970;-3.168;2023-07-30T02:24:27;99673.71;;;16.53;50.95
73566;BME280;61846;52.970;-3.168;2023-07-30T02:26:53;99672.07;;;15.50;51.50
73566;BME280;61846;52.970;-3.168;2023-07-30T02:29:18;99671.95;;;15.96;51.41
73566;BME280;61846;52.970;-3.168;2023-07-30T02:31:43;99659.98;;;16.62;50.42
73566;BME280;61846;52.970;-3.168;2023-07-30T02:34:09;99663.35;;;16.91;49.02
73566;BME280;61846;52.970;-3.168;2023-07-30T02:36:35;99664.47;;;16.42;49.94
73566;BME280;61846;52.970;-3.168;2023-07-30T02:39:00;99666.22;;;15.97;50.47
73566;BME280;61846;52.970;-3.168;2023-07-30T02:41:25;99666.06;;;15.59;51.01
73566;BME280;61846;52.970;-3.168;2023-07-30T02:43:51;99669.35;;;16.23;51.16
73566;BME280;61846;52.970;-3.168;2023-07-30T02:46:16;99673.16;;;16.40;50.67
73566;BME280;61846;52.970;-3.168;2023-07-30T02:48:41;99672.37;;;16.89;49.84
73566;BME280;61846;52.970;-3.168;2023-07-30T02:51:06;99668.35;;;17.27;48.72
73566;BME280;61846;52.970;-3.168;2023-07-30T02:53:32;99667.72;;;16.04;50.13
73566;BME280;61846;52.970;-3.168;2023-07-30T02:55:57;99666.28;;;16.19;49.93
73566;BME280;61846;52.970;-3.168;2023-07-30T02:58:23;99673.19;;;17.33;48.82
73566;BME280;61846;52.970;-3.168;2023-07-30T03:00:48;99672.02;;;17.00;47.86
73566;BME280;61846;52.970;-3.168;2023-07-30T03:03:13;99671.43;;;16.89;48.25
73566;BME280;61846;52.970;-3.168;2023-07-30T03:05:42;99668.40;;;15.18;51.14
73566;BME280;61846;52.970;-3.168;2023-07-30T03:08:04;99662.55;;;17.50;48.24
73566;BME280;61846;52.970;-3.168;2023-07-30T03:10:30;99664.06;;;15.82;50.85
73566;BME280;61846;52.970;-3.168;2023-07-30T03:12:56;99665.90;;;16.17;49.88
73566;BME280;61846;52.970;-3.168;2023-07-30T03:15:21;99663.41;;;16.99;48.17
73566;BME280;61846;52.970;-3.168;2023-07-30T03:17:46;99664.10;;;17.03;48.20
73566;BME280;61846;52.970;-3.168;2023-07-30T03:20:12;99663.96;;;17.35;46.66
73566;BME280;61846;52.970;-3.168;2023-07-30T03:22:37;99665.94;;;17.77;45.76
73566;BME280;61846;52.970;-3.168;2023-07-30T03:25:03;99667.39;;;18.14;44.44
73566;BME280;61846;52.970;-3.168;2023-07-30T03:27:28;99665.06;;;17.85;44.70
73566;BME280;61846;52.970;-3.168;2023-07-30T03:29:53;99662.53;;;17.49;45.40
73566;BME280;61846;52.970;-3.168;2023-07-30T03:32:19;99669.15;;;16.16;47.70
73566;BME280;61846;52.970;-3.168;2023-07-30T03:34:44;99671.05;;;16.32;47.66
73566;BME280;61846;52.970;-3.168;2023-07-30T03:37:10;99670.92;;;15.46;49.29
73566;BME280;61846;52.970;-3.168;2023-07-30T03:39:35;99667.17;;;16.07;48.60
73566;BME280;61846;52.970;-3.168;2023-07-30T03:42:01;99660.27;;;16.34;47.64
73566;BME280;61846;52.970;-3.168;2023-07-30T03:44:26;99669.97;;;15.69;48.75
73566;BME280;61846;52.970;-3.168;2023-07-30T03:46:52;99667.08;;;15.36;49.08
73566;BME280;61846;52.970;-3.168;2023-07-30T03:49:17;99675.03;;;15.06;50.04
73566;BME280;61846;52.970;-3.168;2023-07-30T03:51:42;99673.88;;;15.87;49.12
73566;BME280;61846;52.970;-3.168;2023-07-30T03:54:08;99673.07;;;15.12;50.31
73566;BME280;61846;52.970;-3.168;2023-07-30T03:56:33;99675.08;;;15.13;50.51
73566;BME280;61846;52.970;-3.168;2023-07-30T03:58:58;99680.87;;;14.86;50.88
73566;BME280;61846;52.970;-3.168;2023-07-30T04:01:24;99683.96;;;14.76;49.92
73566;BME280;61846;52.970;-3.168;2023-07-30T04:03:49;99673.10;;;14.05;52.72
73566;BME280;61846;52.970;-3.168;2023-07-30T04:06:15;99681.68;;;14.35;51.98
73566;BME280;61846;52.970;-3.168;2023-07-30T04:08:40;99694.49;;;13.51;53.27
73566;BME280;61846;52.970;-3.168;2023-07-30T04:11:06;99692.85;;;14.11;52.84
73566;BME280;61846;52.970;-3.168;2023-07-30T04:13:31;99688.87;;;13.72;53.47
73566;BME280;61846;52.970;-3.168;2023-07-30T04:15:57;99683.04;;;13.93;53.78
73566;BME280;61846;52.970;-3.168;2023-07-30T04:18:23;99692.79;;;13.94;54.48
73566;BME280;61846;52.970;-3.168;2023-07-30T04:20:48;99698.14;;;14.53;52.39
73566;BME280;61846;52.970;-3.168;2023-07-30T04:23:14;99697.19;;;15.12;50.51
73566;BME280;61846;52.970;-3.168;2023-07-30T04:25:39;99705.59;;;14.94;50.58
73566;BME280;61846;52.970;-3.168;2023-07-30T04:28:05;99701.79;;;15.11;49.44
73566;BME280;61846;52.970;-3.168;2023-07-30T04:30:30;99700.37;;;15.31;49.76
73566;BME280;61846;52.970;-3.168;2023-07-30T04:32:55;99706.17;;;14.96;49.62
73566;BME280;61846;52.970;-3.168;2023-07-30T04:35:21;99703.04;;;15.65;48.97
73566;BME280;61846;52.970;-3.168;2023-07-30T04:37:46;99702.07;;;15.55;49.35
73566;BME280;61846;52.970;-3.168;2023-07-30T04:40:12;99698.98;;;15.56;48.68
73566;BME280;61846;52.970;-3.168;2023-07-30T04:42:37;99700.88;;;15.87;48.49
73566;BME280;61846;52.970;-3.168;2023-07-30T04:45:03;99695.72;;;14.68;50.51
73566;BME280;61846;52.970;-3.168;2023-07-30T04:47:28;99709.15;;;14.38;52.22
73566;BME280;61846;52.970;-3.168;2023-07-30T04:49:54;99707.70;;;14.47;50.62
73566;BME280;61846;52.970;-3.168;2023-07-30T04:52:19;99707.90;;;14.58;51.12
73566;BME280;61846;52.970;-3.168;2023-07-30T04:54:45;99714.90;;;14.72;50.67
73566;BME280;61846;52.970;-3.168;2023-07-30T04:57:11;99714.34;;;15.28;49.96
73566;BME280;61846;52.970;-3.168;2023-07-30T04:59:35;99710.27;;;15.45;50.26
73566;BME280;61846;52.970;-3.168;2023-07-30T05:02:01;99711.53;;;14.74;51.41
73566;BME280;61846;52.970;-3.168;2023-07-30T05:04:26;99716.85;;;14.69;51.16
73566;BME280;61846;52.970;-3.168;2023-07-30T05:06:52;99713.65;;;14.94;51.62
73566;BME280;61846;52.970;-3.168;2023-07-30T05:09:17;99712.24;;;15.18;51.07
73566;BME280;61846;52.970;-3.168;2023-07-30T05:11:43;99712.01;;;15.04;50.80
73566;BME280;61846;52.970;-3.168;2023-07-30T05:14:08;99717.74;;;14.38;52.02
73566;BME280;61846;52.970;-3.168;2023-07-30T05:16:34;99719.57;;;14.82;51.46
73566;BME280;61846;52.970;-3.168;2023-07-30T05:18:59;99718.30;;;14.30;52.07
73566;BME280;61846;52.970;-3.168;2023-07-30T05:21:24;99721.39;;;15.34;49.57
73566;BME280;61846;52.970;-3.168;2023-07-30T05:23:50;99708.71;;;15.25;49.23
73566;BME280;61846;52.970;-3.168;2023-07-30T05:26:15;99721.67;;;15.43;49.49
73566;BME280;61846;52.970;-3.168;2023-07-30T05:28:41;99724.37;;;15.34;49.16
73566;BME280;61846;52.970;-3.168;2023-07-30T05:31:06;99725.86;;;15.79;48.46
73566;BME280;61846;52.970;-3.168;2023-07-30T05:33:32;99716.98;;;15.14;49.12
73566;BME280;61846;52.970;-3.168;2023-07-30T05:35:57;99728.51;;;15.22;49.24
73566;BME280;61846;52.970;-3.168;2023-07-30T05:38:23;99735.17;;;16.21;47.64
73566;BME280;61846;52.970;-3.168;2023-07-30T05:40:48;99731.93;;;15.15;50.01
73566;BME280;61846;52.970;-3.168;2023-07-30T05:43:13;99734.69;;;13.84;53.57
73566;BME280;61846;52.970;-3.168;2023-07-30T05:45:39;99738.38;;;14.37;51.77
73566;BME280;61846;52.970;-3.168;2023-07-30T05:48:04;99735.68;;;13.97;53.15
73566;BME280;61846;52.970;-3.168;2023-07-30T05:50:30;99738.31;;;14.51;52.36
73566;BME280;61846;52.970;-3.168;2023-07-30T05:52:55;99741.80;;;14.73;50.88
73566;BME280;61846;52.970;-3.168;2023-07-30T05:55:20;99745.51;;;14.53;52.27
73566;BME280;61846;52.970;-3.168;2023-07-30T05:57:46;99736.20;;;15.92;49.55
73566;BME280;61846;52.970;-3.168;2023-07-30T06:00:12;99740.74;;;15.29;49.62
73566;BME280;61846;52.970;-3.168;2023-07-30T06:02:38;99742.44;;;15.50;49.34
73566;BME280;61846;52.970;-3.168;2023-07-30T06:05:03;99750.29;;;14.76;51.01
73566;BME280;61846;52.970;-3.168;2023-07-30T06:07:28;99747.59;;;15.29;50.21
73566;BME280;61846;52.970;-3.168;2023-07-30T06:09:54;99754.36;;;14.62;51.21
73566;BME280;61846;52.970;-3.168;2023-07-30T06:12:19;99744.51;;;15.23;49.77
73566;BME280;61846;52.970;-3.168;2023-07-30T06:14:45;99740.33;;;15.59;49.72
73566;BME280;61846;52.970;-3.168;2023-07-30T06:17:10;99750.48;;;15.22;50.06
73566;BME280;61846;52.970;-3.168;2023-07-30T06:19:35;99744.59;;;15.03;50.28
73566;BME280;61846;52.970;-3.168;2023-07-30T06:22:00;99751.56;;;14.78;50.43
73566;BME280;61846;52.970;-3.168;2023-07-30T06:24:26;99762.71;;;14.85;50.57
73566;BME280;61846;52.970;-3.168;2023-07-30T06:26:52;99754.38;;;14.99;51.47
73566;BME280;61846;52.970;-3.168;2023-07-30T06:29:16;99761.57;;;15.87;50.57
73566;BME280;61846;52.970;-3.168;2023-07-30T06:31:42;99767.46;;;14.57;52.49
73566;BME280;61846;52.970;-3.168;2023-07-30T06:34:07;99768.29;;;14.36;53.61
73566;BME280;61846;52.970;-3.168;2023-07-30T06:36:33;99765.88;;;15.51;52.45
73566;BME280;61846;52.970;-3.168;2023-07-30T06:38:58;99771.55;;;14.49;53.44
73566;BME280;61846;52.970;-3.168;2023-07-30T06:41:24;99769.22;;;15.02;52.96
73566;BME280;61846;52.970;-3.168;2023-07-30T06:43:49;99764.50;;;16.09;50.19
73566;BME280;61846;52.970;-3.168;2023-07-30T06:46:15;99766.99;;;16.56;49.05
73566;BME280;61846;52.970;-3.168;2023-07-30T06:48:40;99771.46;;;16.71;48.18
73566;BME280;61846;52.970;-3.168;2023-07-30T06:51:06;99777.31;;;16.15;49.82
73566;BME280;61846;52.970;-3.168;2023-07-30T06:53:31;99780.52;;;16.87;47.24
73566;BME280;61846;52.970;-3.168;2023-07-30T06:55:57;99778.47;;;15.89;50.24
73566;BME280;61846;52.970;-3.168;2023-07-30T06:58:22;99781.61;;;17.16;46.35
73566;BME280;61846;52.970;-3.168;2023-07-30T07:00:47;99783.15;;;17.61;45.09
73566;BME280;61846;52.970;-3.168;2023-07-30T07:03:13;99778.83;;;17.71;45.41
73566;BME280;61846;52.970;-3.168;2023-07-30T07:05:38;99782.71;;;17.67;46.00
73566;BME280;61846;52.970;-3.168;2023-07-30T07:08:04;99788.79;;;17.67;45.23
73566;BME280;61846;52.970;-3.168;2023-07-30T07:10:29;99787.89;;;17.28;44.76
73566;BME280;61846;52.970;-3.168;2023-07-30T07:12:54;99791.38;;;17.37;44.80
73566;BME280;61846;52.970;-3.168;2023-07-30T07:15:20;99798.76;;;17.49;44.87
73566;BME280;61846;52.970;-3.168;2023-07-30T07:17:45;99797.69;;;18.02;44.52
73566;BME280;61846;52.970;-3.168;2023-07-30T07:20:11;99802.70;;;17.47;44.03
73566;BME280;61846;52.970;-3.168;2023-07-30T07:22:36;99801.48;;;17.82;43.26
73566;BME280;61846;52.970;-3.168;2023-07-30T07:25:01;99802.96;;;17.79;43.64
73566;BME280;61846;52.970;-3.168;2023-07-30T07:27:27;99811.14;;;17.10;44.48
73566;BME280;61846;52.970;-3.168;2023-07-30T07:29:53;99818.86;;;15.67;48.77
73566;BME280;61846;52.970;-3.168;2023-07-30T07:32:18;99812.13;;;16.02;48.05
73566;BME280;61846;52.970;-3.168;2023-07-30T07:34:46;99809.45;;;16.68;46.75
73566;BME280;61846;52.970;-3.168;2023-07-30T07:37:09;99815.69;;;16.39;46.65
73566;BME280;61846;52.970;-3.168;2023-07-30T07:39:34;99810.87;;;16.08;47.67
73566;BME280;61846;52.970;-3.168;2023-07-30T07:41:59;99805.54;;;15.84;48.50
73566;BME280;61846;52.970;-3.168;2023-07-30T07:44:25;99801.72;;;15.44;48.87
73566;BME280;61846;52.970;-3.168;2023-07-30T07:46:51;99801.17;;;15.39;49.35
73566;BME280;61846;52.970;-3.168;2023-07-30T07:49:16;99803.56;;;15.00;50.52
73566;BME280;61846;52.970;-3.168;2023-07-30T07:51:41;99806.93;;;16.05;48.52
73566;BME280;61846;52.970;-3.168;2023-07-30T07:54:07;99805.66;;;16.19;47.81
73566;BME280;61846;52.970;-3.168;2023-07-30T07:56:37;99802.46;;;16.43;47.00
73566;BME280;61846;52.970;-3.168;2023-07-30T07:58:57;99799.87;;;16.50;46.77
73566;BME280;61846;52.970;-3.168;2023-07-30T08:01:23;99805.11;;;16.48;47.93
73566;BME280;61846;52.970;-3.168;2023-07-30T08:03:48;99815.61;;;16.52;48.78
73566;BME280;61846;52.970;-3.168;2023-07-30T08:06:13;99813.78;;;16.46;48.56
73566;BME280;61846;52.970;-3.168;2023-07-30T08:08:39;99817.66;;;15.33;50.44
73566;BME280;61846;52.970;-3.168;2023-07-30T08:11:05;99810.18;;;16.70;49.89
73566;BME280;61846;52.970;-3.168;2023-07-30T08:13:30;99809.75;;;16.92;48.94
73566;BME280;61846;52.970;-3.168;2023-07-30T08:15:55;99805.97;;;17.19;47.66
73566;BME280;61846;52.970;-3.168;2023-07-30T08:18:20;99808.30;;;16.20;48.81
73566;BME280;61846;52.970;-3.168;2023-07-30T08:20:46;99811.79;;;16.60;48.86
73566;BME280;61846;52.970;-3.168;2023-07-30T08:23:11;99807.15;;;17.27;47.28
73566;BME280;61846;52.970;-3.168;2023-07-30T08:25:36;99813.41;;;16.19;48.47
73566;BME280;61846;52.970;-3.168;2023-07-30T08:28:02;99812.06;;;15.23;50.52
73566;BME280;61846;52.970;-3.168;2023-07-30T08:30:27;99819.81;;;15.23;53.39
73566;BME280;61846;52.970;-3.168;2023-07-30T08:32:53;99819.55;;;15.52;51.16
73566;BME280;61846;52.970;-3.168;2023-07-30T08:35:18;99816.40;;;16.39;50.23
73566;BME280;61846;52.970;-3.168;2023-07-30T08:37:44;99818.33;;;16.55;48.46
73566;BME280;61846;52.970;-3.168;2023-07-30T08:40:10;99823.13;;;16.58;48.14
73566;BME280;61846;52.970;-3.168;2023-07-30T08:42:34;99823.00;;;17.47;47.14
73566;BME280;61846;52.970;-3.168;2023-07-30T08:45:00;99823.98;;;16.52;46.91
73566;BME280;61846;52.970;-3.168;2023-07-30T08:47:25;99834.71;;;16.27;47.41
73566;BME280;61846;52.970;-3.168;2023-07-30T08:49:51;99824.44;;;17.00;47.39
73566;BME280;61846;52.970;-3.168;2023-07-30T08:52:17;99825.42;;;17.39;46.93
73566;BME280;61846;52.970;-3.168;2023-07-30T08:54:42;99828.36;;;16.24;48.12
73566;BME280;61846;52.970;-3.168;2023-07-30T08:57:07;99832.62;;;16.74;47.33
73566;BME280;61846;52.970;-3.168;2023-07-30T08:59:37;99835.13;;;17.24;46.02
73566;BME280;61846;52.970;-3.168;2023-07-30T09:01:58;99836.49;;;16.59;47.46
73566;BME280;61846;52.970;-3.168;2023-07-30T09:04:23;99841.90;;;17.59;45.24
73566;BME280;61846;52.970;-3.168;2023-07-30T09:06:48;99847.32;;;17.19;45.74
73566;BME280;61846;52.970;-3.168;2023-07-30T09:09:14;99852.43;;;16.50;47.00
73566;BME280;61846;52.970;-3.168;2023-07-30T09:11:39;99848.37;;;17.04;46.77
73566;BME280;61846;52.970;-3.168;2023-07-30T09:14:05;99854.19;;;16.52;47.63
73566;BME280;61846;52.970;-3.168;2023-07-30T09:16:30;99856.07;;;17.11;47.23
73566;BME280;61846;52.970;-3.168;2023-07-30T09:18:55;99848.85;;;16.97;47.63
73566;BME280;61846;52.970;-3.168;2023-07-30T09:21:29;99849.56;;;17.20;45.30
73566;BME280;61846;52.970;-3.168;2023-07-30T09:23:47;99853.14;;;17.27;46.26
73566;BME280;61846;52.970;-3.168;2023-07-30T09:26:12;99848.16;;;17.32;45.05
73566;BME280;61846;52.970;-3.168;2023-07-30T09:28:37;99847.83;;;17.56;45.28
73566;BME280;61846;52.970;-3.168;2023-07-30T09:31:03;99849.94;;;16.99;43.93
73566;BME280;61846;52.970;-3.168;2023-07-30T09:33:28;99850.54;;;16.81;45.16
73566;BME280;61846;52.970;-3.168;2023-07-30T09:35:53;99856.98;;;17.11;45.98
73566;BME280;61846;52.970;-3.168;2023-07-30T09:38:19;99855.72;;;17.13;43.76
73566;BME280;61846;52.970;-3.168;2023-07-30T09:40:44;99849.44;;;17.56;44.47
73566;BME280;61846;52.970;-3.168;2023-07-30T09:43:09;99866.20;;;17.81;42.87
73566;BME280;61846;52.970;-3.168;2023-07-30T09:45:36;99868.56;;;17.09;43.96
73566;BME280;61846;52.970;-3.168;2023-07-30T09:48:03;99871.86;;;16.52;45.46
73566;BME280;61846;52.970;-3.168;2023-07-30T09:50:25;99871.45;;;16.33;48.01
73566;BME280;61846;52.970;-3.168;2023-07-30T09:52:51;99861.47;;;17.13;44.03
73566;BME280;61846;52.970;-3.168;2023-07-30T09:55:16;99860.40;;;17.19;44.02
73566;BME280;61846;52.970;-3.168;2023-07-30T09:57:42;99862.83;;;17.65;42.73
73566;BME280;61846;52.970;-3.168;2023-07-30T10:00:08;99858.90;;;17.10;44.39
73566;BME280;61846;52.970;-3.168;2023-07-30T10:02:37;99860.25;;;17.00;44.58
73566;BME280;61846;52.970;-3.168;2023-07-30T10:04:59;99855.63;;;17.18;42.97
73566;BME280;61846;52.970;-3.168;2023-07-30T10:07:24;99861.90;;;17.30;42.37
73566;BME280;61846;52.970;-3.168;2023-07-30T10:09:51;99858.63;;;17.23;43.30
73566;BME280;61846;52.970;-3.168;2023-07-30T10:12:16;99862.33;;;17.05;43.91
73566;BME280;61846;52.970;-3.168;2023-07-30T10:14:39;99860.50;;;16.77;45.24
73566;BME280;61846;52.970;-3.168;2023-07-30T10:17:08;99860.04;;;16.99;43.59
73566;BME280;61846;52.970;-3.168;2023-07-30T10:19:30;99868.14;;;17.96;42.19
73566;BME280;61846;52.970;-3.168;2023-07-30T10:22:19;99871.50;;;17.30;42.01
73566;BME280;61846;52.970;-3.168;2023-07-30T10:24:21;99871.07;;;16.66;44.10
73566;BME280;61846;52.970;-3.168;2023-07-30T10:26:46;99877.44;;;16.51;45.74
73566;BME280;61846;52.970;-3.168;2023-07-30T10:29:13;99882.16;;;16.87;44.16
73566;BME280;61846;52.970;-3.168;2023-07-30T10:31:39;99871.13;;;17.76;44.02
73566;BME280;61846;52.970;-3.168;2023-07-30T10:34:06;99873.49;;;17.43;43.15
73566;BME280;61846;52.970;-3.168;2023-07-30T10:36:31;99885.20;;;17.28;43.11
73566;BME280;61846;52.970;-3.168;2023-07-30T10:38:53;99885.20;;;16.43;44.25
73566;BME280;61846;52.970;-3.168;2023-07-30T10:41:19;99891.95;;;17.14;44.76
73566;BME280;61846;52.970;-3.168;2023-07-30T10:43:47;99882.88;;;17.01;43.88
73566;BME280;61846;52.970;-3.168;2023-07-30T10:46:11;99878.17;;;17.98;44.37
73566;BME280;61846;52.970;-3.168;2023-07-30T10:48:36;99879.56;;;18.22;42.19
73566;BME280;61846;52.970;-3.168;2023-07-30T10:51:02;99878.90;;;17.92;44.09
73566;BME280;61846;52.970;-3.168;2023-07-30T10:53:26;99878.54;;;18.06;42.33
73566;BME280;61846;52.970;-3.168;2023-07-30T10:55:52;99879.49;;;17.86;42.50
73566;BME280;61846;52.970;-3.168;2023-07-30T10:58:16;99891.16;;;17.30;43.46
73566;BME280;61846;52.970;-3.168;2023-07-30T11:00:42;99891.88;;;18.35;42.03
73566;BME280;61846;52.970;-3.168;2023-07-30T11:03:07;99884.74;;;18.27;41.67
73566;BME280;61846;52.970;-3.168;2023-07-30T11:05:33;99881.65;;;17.97;41.53
73566;BME280;61846;52.970;-3.168;2023-07-30T11:07:58;99884.29;;;18.89;41.71
73566;BME280;61846;52.970;-3.168;2023-07-30T11:10:23;99878.61;;;18.82;39.40
73566;BME280;61846;52.970;-3.168;2023-07-30T11:12:49;99893.50;;;17.92;42.30
73566;BME280;61846;52.970;-3.168;2023-07-30T11:15:14;99894.27;;;17.40;42.89
73566;BME280;61846;52.970;-3.168;2023-07-30T11:17:39;99899.69;;;17.69;42.33
73566;BME280;61846;52.970;-3.168;2023-07-30T11:20:05;99892.62;;;18.37;41.58
73566;BME280;61846;52.970;-3.168;2023-07-30T11:22:30;99897.69;;;18.74;40.63
73566;BME280;61846;52.970;-3.168;2023-07-30T11:24:55;99903.71;;;18.43;39.72
73566;BME280;61846;52.970;-3.168;2023-07-30T11:27:21;99915.38;;;18.25;42.38
73566;BME280;61846;52.970;-3.168;2023-07-30T11:29:54;99915.55;;;18.61;39.78
73566;BME280;61846;52.970;-3.168;2023-07-30T11:32:12;99919.36;;;17.38;41.15
73566;BME280;61846;52.970;-3.168;2023-07-30T11:34:36;99913.74;;;18.57;40.47
73566;BME280;61846;52.970;-3.168;2023-07-30T11:37:02;99913.76;;;17.42;41.73
73566;BME280;61846;52.970;-3.168;2023-07-30T11:39:27;99906.19;;;17.63;41.45
73566;BME280;61846;52.970;-3.168;2023-07-30T11:41:53;99910.46;;;17.96;41.49
73566;BME280;61846;52.970;-3.168;2023-07-30T11:44:29;99919.43;;;16.82;42.14
73566;BME280;61846;52.970;-3.168;2023-07-30T11:46:52;99913.10;;;16.87;43.34
73566;BME280;61846;52.970;-3.168;2023-07-30T11:49:15;99911.37;;;17.33;41.60
73566;BME280;61846;52.970;-3.168;2023-07-30T11:51:34;99912.77;;;17.57;42.38
73566;BME280;61846;52.970;-3.168;2023-07-30T11:54:00;99911.22;;;16.96;42.82
73566;BME280;61846;52.970;-3.168;2023-07-30T11:56:26;99904.97;;;17.35;42.60
73566;BME280;61846;52.970;-3.168;2023-07-30T11:58:53;99904.51;;;18.30;40.37
73566;BME280;61846;52.970;-3.168;2023-07-30T12:01:17;99908.65;;;18.39;40.90
73566;BME280;61846;52.970;-3.168;2023-07-30T12:03:41;99902.07;;;18.98;37.87
73566;BME280;61846;52.970;-3.168;2023-07-30T12:06:07;99894.86;;;18.40;39.16
73566;BME280;61846;52.970;-3.168;2023-07-30T12:08:34;99902.91;;;18.02;39.04
73566;BME280;61846;52.970;-3.168;2023-07-30T12:11:02;99900.88;;;17.71;41.28
73566;BME280;61846;52.970;-3.168;2023-07-30T12:13:22;99905.71;;;17.73;40.96
73566;BME280;61846;52.970;-3.168;2023-07-30T12:15:51;99910.95;;;18.00;39.98
73566;BME280;61846;52.970;-3.168;2023-07-30T12:18:13;99912.78;;;18.00;39.37
73566;BME280;61846;52.970;-3.168;2023-07-30T12:20:39;99905.94;;;18.61;39.19
73566;BME280;61846;52.970;-3.168;2023-07-30T12:23:04;99900.29;;;17.97;38.90
73566;BME280;61846;52.970;-3.168;2023-07-30T12:25:29;99899.71;;;18.85;37.41
73566;BME280;61846;52.970;-3.168;2023-07-30T12:27:55;99901.89;;;18.65;37.06
73566;BME280;61846;52.970;-3.168;2023-07-30T12:30:20;99906.45;;;19.48;36.22
73566;BME280;61846;52.970;-3.168;2023-07-30T12:32:45;99910.50;;;18.21;36.99
73566;BME280;61846;52.970;-3.168;2023-07-30T12:35:11;99923.34;;;17.39;38.54
73566;BME280;61846;52.970;-3.168;2023-07-30T12:37:36;99918.45;;;18.28;39.80
73566;BME280;61846;52.970;-3.168;2023-07-30T12:40:02;99926.49;;;17.58;40.01